sensor_id;sensor_type;location;lat;lon;timestamp;pressure;altitude;pressure_sealevel;temperature;humidity
73085;BME280;62974;49.460;10.892;2023-08-06T00:00:10;97093.34;;;16.79;100.00
73085;BME280;62974;49.460;10.892;2023-08-06T00:02:37;97085.47;;;17.09;100.00
73085;BME280;62974;49.460;10.892;2023-08-06T00:05:06;97082.84;;;16.61;100.00
73085;BME280;62974;49.460;10.892;2023-08-06T00:07:33;97087.25;;;16.40;100.00
73085;BME280;62974;49.460;10.892;2023-08-06T00:10:01;97074.75;;;16.92;100.00
73085;BME280;62974;49.460;10.892;2023-08-06T00:12:30;97065.41;;;16.52;100.00
73085;BME280;62974;49.460;10.892;2023-08-06T00:14:57;97069.50;;;16.06;100.00
73085;BME280;62974;49.460;10.892;2023-08-06T00:17:25;97060.03;;;16.30;100.00
73085;BME280;62974;49.460;10.892;2023-08-06T00:19:53;97061.19;;;16.12;100.00
73085;BME280;62974;49.460;10.892;2023-08-06T00:22:20;97050.91;;;16.41;100.00
73085;BME280;62974;49.460;10.892;2023-08-06T00:24:48;97029.91;;;16.80;100.00
73085;BME280;62974;49.460;10.892;2023-08-06T00:27:15;97025.03;;;16.82;100.00
73085;BME280;62974;49.460;10.892;2023-08-06T00:29:44;97024.34;;;16.38;100.00
73085;BME280;62974;49.460;10.892;2023-08-06T00:32:11;97005.19;;;17.13;97.02
73085;BME280;62974;49.460;10.892;2023-08-06T00:34:39;97003.94;;;17.36;94.21
73085;BME280;62974;49.460;10.892;2023-08-06T00:37:06;97003.94;;;17.31;95.32
73085;BME280;62974;49.460;10.892;2023-08-06T00:39:34;96996.00;;;17.24;95.23
73085;BME280;62974;49.460;10.892;2023-08-06T00:42:02;97001.53;;;17.34;94.12
73085;BME280;62974;49.460;10.892;2023-08-06T00:44:29;97009.38;;;17.31;95.24
73085;BME280;62974;49.460;10.892;2023-08-06T00:46:58;97018.84;;;17.28;95.68
73085;BME280;62974;49.460;10.892;2023-08-06T00:49:26;97015.00;;;17.19;96.58
73085;BME280;62974;49.460;10.892;2023-08-06T00:51:54;97012.06;;;16.89;99.44
73085;BME280;62974;49.460;10.892;2023-08-06T00:54:23;97011.81;;;16.90;97.04
73085;BME280;62974;49.460;10.892;2023-08-06T00:56:51;97019.53;;;16.72;100.00
73085;BME280;62974;49.460;10.892;2023-08-06T00:59:18;97003.91;;;16.89;97.88
73085;BME280;62974;49.460;10.892;2023-08-06T01:01:47;97007.75;;;16.93;97.08
73085;BME280;62974;49.460;10.892;2023-08-06T01:04:18;97007.38;;;17.16;94.15
73085;BME280;62974;49.460;10.892;2023-08-06T01:06:48;97016.59;;;17.15;94.05
73085;BME280;62974;49.460;10.892;2023-08-06T01:09:27;97016.81;;;17.04;94.30
73085;BME280;62974;49.460;10.892;2023-08-06T01:12:05;97010.41;;;16.88;96.97
73085;BME280;62974;49.460;10.892;2023-08-06T01:14:37;97003.56;;;17.17;92.99
73085;BME280;62974;49.460;10.892;2023-08-06T01:17:12;96996.75;;;17.10;94.07
73085;BME280;62974;49.460;10.892;2023-08-06T01:19:41;97008.03;;;16.60;95.88
73085;BME280;62974;49.460;10.892;2023-08-06T01:22:10;97012.13;;;16.62;98.64
73085;BME280;62974;49.460;10.892;2023-08-06T01:24:37;97000.81;;;17.07;93.19
73085;BME280;62974;49.460;10.892;2023-08-06T01:27:08;96998.94;;;17.13;92.00
73085;BME280;62974;49.460;10.892;2023-08-06T01:29:42;96990.59;;;17.19;91.32
73085;BME280;62974;49.460;10.892;2023-08-06T01:32:14;96988.09;;;16.17;100.00
73085;BME280;62974;49.460;10.892;2023-08-06T01:34:43;96982.59;;;17.03;93.16
73085;BME280;62974;49.460;10.892;2023-08-06T01:37:13;96976.47;;;17.22;91.05
73085;BME280;62974;49.460;10.892;2023-08-06T01:39:42;96974.19;;;16.35;98.37
73085;BME280;62974;49.460;10.892;2023-08-06T01:42:10;96973.47;;;16.77;96.55
73085;BME280;62974;49.460;10.892;2023-08-06T01:44:37;96978.53;;;17.05;93.30
73085;BME280;62974;49.460;10.892;2023-08-06T01:47:05;96978.34;;;17.12;92.12
73085;BME280;62974;49.460;10.892;2023-08-06T01:49:33;96982.66;;;17.08;92.59
73085;BME280;62974;49.460;10.892;2023-08-06T01:52:00;96976.69;;;17.16;91.00
73085;BME280;62974;49.460;10.892;2023-08-06T01:54:29;96975.03;;;17.10;91.41
73085;BME280;62974;49.460;10.892;2023-08-06T01:56:57;96982.91;;;17.06;92.06
73085;BME280;62974;49.460;10.892;2023-08-06T01:59:25;96980.72;;;17.03;92.15
73085;BME280;62974;49.460;10.892;2023-08-06T02:01:53;96977.28;;;16.81;93.73
73085;BME280;62974;49.460;10.892;2023-08-06T02:04:21;96986.91;;;16.99;91.95
73085;BME280;62974;49.460;10.892;2023-08-06T02:06:48;96984.78;;;17.06;91.79
73085;BME280;62974;49.460;10.892;2023-08-06T02:09:16;96976.56;;;16.90;92.85
73085;BME280;62974;49.460;10.892;2023-08-06T02:11:45;96982.59;;;16.66;95.42
73085;BME280;62974;49.460;10.892;2023-08-06T02:14:12;96987.41;;;15.78;100.00
73085;BME280;62974;49.460;10.892;2023-08-06T02:16:40;96973.69;;;15.63;100.00
73085;BME280;62974;49.460;10.892;2023-08-06T02:19:08;96958.81;;;16.14;100.00
73085;BME280;62974;49.460;10.892;2023-08-06T02:21:35;96968.41;;;15.52;100.00
73085;BME280;62974;49.460;10.892;2023-08-06T02:24:03;96949.19;;;16.02;100.00
73085;BME280;62974;49.460;10.892;2023-08-06T02:26:31;96943.97;;;16.22;100.00
73085;BME280;62974;49.460;10.892;2023-08-06T02:29:00;96939.31;;;16.17;100.00
73085;BME280;62974;49.460;10.892;2023-08-06T02:31:27;96928.59;;;16.59;95.63
73085;BME280;62974;49.460;10.892;2023-08-06T02:33:55;96921.09;;;16.71;93.89
73085;BME280;62974;49.460;10.892;2023-08-06T02:36:23;96914.66;;;16.82;92.64
73085;BME280;62974;49.460;10.892;2023-08-06T02:38:51;96914.00;;;16.65;94.22
73085;BME280;62974;49.460;10.892;2023-08-06T02:41:18;96911.41;;;16.85;92.31
73085;BME280;62974;49.460;10.892;2023-08-06T02:43:46;96923.09;;;16.86;92.66
73085;BME280;62974;49.460;10.892;2023-08-06T02:46:14;96913.88;;;16.87;91.79
73085;BME280;62974;49.460;10.892;2023-08-06T02:48:42;96921.50;;;16.90;91.26
73085;BME280;62974;49.460;10.892;2023-08-06T02:51:09;96918.16;;;16.78;93.06
73085;BME280;62974;49.460;10.892;2023-08-06T02:53:37;96918.38;;;16.71;95.05
73085;BME280;62974;49.460;10.892;2023-08-06T02:56:04;96914.91;;;16.81;92.66
73085;BME280;62974;49.460;10.892;2023-08-06T02:58:32;96912.78;;;16.88;91.47
73085;BME280;62974;49.460;10.892;2023-08-06T03:01:01;96911.16;;;16.87;91.83
73085;BME280;62974;49.460;10.892;2023-08-06T03:03:31;96903.03;;;16.87;91.50
73085;BME280;62974;49.460;10.892;2023-08-06T03:05:58;96902.94;;;16.77;92.24
73085;BME280;62974;49.460;10.892;2023-08-06T03:08:26;96906.19;;;16.74;92.16
73085;BME280;62974;49.460;10.892;2023-08-06T03:10:54;96902.75;;;16.83;90.82
73085;BME280;62974;49.460;10.892;2023-08-06T03:13:21;96890.50;;;16.76;91.72
73085;BME280;62974;49.460;10.892;2023-08-06T03:15:52;96897.81;;;16.80;91.18
73085;BME280;62974;49.460;10.892;2023-08-06T03:18:21;96891.59;;;16.80;90.66
73085;BME280;62974;49.460;10.892;2023-08-06T03:20:50;96893.16;;;16.71;91.55
73085;BME280;62974;49.460;10.892;2023-08-06T03:23:18;96897.47;;;16.67;92.07
73085;BME280;62974;49.460;10.892;2023-08-06T03:25:45;96890.41;;;16.66;91.88
73085;BME280;62974;49.460;10.892;2023-08-06T03:28:13;96903.44;;;16.69;91.05
73085;BME280;62974;49.460;10.892;2023-08-06T03:30:41;96901.66;;;16.53;92.80
73085;BME280;62974;49.460;10.892;2023-08-06T03:33:08;96900.41;;;16.28;94.91
73085;BME280;62974;49.460;10.892;2023-08-06T03:35:36;96886.69;;;16.40;94.54
73085;BME280;62974;49.460;10.892;2023-08-06T03:38:05;96890.19;;;16.35;94.53
73085;BME280;62974;49.460;10.892;2023-08-06T03:40:34;96888.59;;;16.44;92.84
73085;BME280;62974;49.460;10.892;2023-08-06T03:43:02;96879.78;;;16.22;93.74
73085;BME280;62974;49.460;10.892;2023-08-06T03:45:30;96882.59;;;16.37;92.58
73085;BME280;62974;49.460;10.892;2023-08-06T03:47:57;96880.63;;;16.60;90.64
73085;BME280;62974;49.460;10.892;2023-08-06T03:50:25;96874.13;;;16.61;89.91
73085;BME280;62974;49.460;10.892;2023-08-06T03:52:52;96866.72;;;16.56;89.88
73085;BME280;62974;49.460;10.892;2023-08-06T03:55:21;96870.28;;;16.57;89.60
73085;BME280;62974;49.460;10.892;2023-08-06T03:57:49;96869.72;;;16.55;89.92
73085;BME280;62974;49.460;10.892;2023-08-06T04:00:16;96877.28;;;16.53;89.67
73085;BME280;62974;49.460;10.892;2023-08-06T04:02:44;96873.16;;;16.45;90.12
73085;BME280;62974;49.460;10.892;2023-08-06T04:05:12;96865.91;;;16.51;89.61
73085;BME280;62974;49.460;10.892;2023-08-06T04:07:39;96868.28;;;16.42;89.67
73085;BME280;62974;49.460;10.892;2023-08-06T04:10:08;96870.72;;;16.43;89.39
73085;BME280;62974;49.460;10.892;2023-08-06T04:12:37;96871.81;;;16.42;89.84
73085;BME280;62974;49.460;10.892;2023-08-06T04:15:06;96883.91;;;16.30;90.03
73085;BME280;62974;49.460;10.892;2023-08-06T04:17:34;96873.06;;;16.30;90.30
73085;BME280;62974;49.460;10.892;2023-08-06T04:20:02;96874.41;;;16.27;90.28
73085;BME280;62974;49.460;10.892;2023-08-06T04:22:29;96868.75;;;16.34;89.67
73085;BME280;62974;49.460;10.892;2023-08-06T04:24:57;96871.16;;;16.30;89.48
73085;BME280;62974;49.460;10.892;2023-08-06T04:27:25;96867.88;;;16.28;89.44
73085;BME280;62974;49.460;10.892;2023-08-06T04:29:54;96858.66;;;16.24;89.88
73085;BME280;62974;49.460;10.892;2023-08-06T04:32:21;96873.47;;;16.12;91.08
73085;BME280;62974;49.460;10.892;2023-08-06T04:34:49;96867.19;;;16.06;91.62
73085;BME280;62974;49.460;10.892;2023-08-06T04:37:16;96865.06;;;16.13;90.62
73085;BME280;62974;49.460;10.892;2023-08-06T04:39:44;96862.94;;;16.15;90.65
73085;BME280;62974;49.460;10.892;2023-08-06T04:42:11;96859.16;;;16.16;90.04
73085;BME280;62974;49.460;10.892;2023-08-06T04:44:39;96863.19;;;16.14;90.34
73085;BME280;62974;49.460;10.892;2023-08-06T04:47:08;96864.94;;;15.98;91.69
73085;BME280;62974;49.460;10.892;2023-08-06T04:49:35;96857.97;;;16.07;90.95
73085;BME280;62974;49.460;10.892;2023-08-06T04:52:03;96856.34;;;16.06;91.30
73085;BME280;62974;49.460;10.892;2023-08-06T04:54:31;96856.16;;;16.18;90.50
73085;BME280;62974;49.460;10.892;2023-08-06T04:56:59;96858.53;;;16.09;91.32
73085;BME280;62974;49.460;10.892;2023-08-06T04:59:26;96862.59;;;16.07;92.79
73085;BME280;62974;49.460;10.892;2023-08-06T05:01:54;96855.28;;;16.07;91.90
73085;BME280;62974;49.460;10.892;2023-08-06T05:04:23;96859.50;;;16.30;90.43
73085;BME280;62974;49.460;10.892;2023-08-06T05:06:51;96860.31;;;16.30;90.77
73085;BME280;62974;49.460;10.892;2023-08-06T05:09:18;96863.22;;;16.56;92.52
73085;BME280;62974;49.460;10.892;2023-08-06T05:11:46;96863.88;;;16.73;95.19
73085;BME280;62974;49.460;10.892;2023-08-06T05:14:14;96860.09;;;17.31;91.21
73085;BME280;62974;49.460;10.892;2023-08-06T05:16:42;96860.56;;;17.08;92.86
73085;BME280;62974;49.460;10.892;2023-08-06T05:19:09;96856.06;;;16.81;93.14
73085;BME280;62974;49.460;10.892;2023-08-06T05:21:38;96864.16;;;16.71;91.98
73085;BME280;62974;49.460;10.892;2023-08-06T05:24:06;96861.13;;;16.63;92.92
73085;BME280;62974;49.460;10.892;2023-08-06T05:26:33;96858.22;;;16.37;94.17
73085;BME280;62974;49.460;10.892;2023-08-06T05:29:01;96867.94;;;16.33;94.03
73085;BME280;62974;49.460;10.892;2023-08-06T05:31:29;96863.28;;;16.24;95.66
73085;BME280;62974;49.460;10.892;2023-08-06T05:33:56;96862.69;;;16.22;94.51
73085;BME280;62974;49.460;10.892;2023-08-06T05:36:24;96859.56;;;16.35;93.46
73085;BME280;62974;49.460;10.892;2023-08-06T05:38:56;96855.25;;;16.39;92.72
73085;BME280;62974;49.460;10.892;2023-08-06T05:41:24;96853.38;;;16.44;92.08
73085;BME280;62974;49.460;10.892;2023-08-06T05:43:51;96866.81;;;15.97;100.00
73085;BME280;62974;49.460;10.892;2023-08-06T05:46:19;96860.63;;;16.71;92.65
73085;BME280;62974;49.460;10.892;2023-08-06T05:48:46;96855.50;;;16.74;92.10
73085;BME280;62974;49.460;10.892;2023-08-06T05:51:14;96856.66;;;16.88;91.70
73085;BME280;62974;49.460;10.892;2023-08-06T05:53:42;96856.25;;;17.12;95.89
73085;BME280;62974;49.460;10.892;2023-08-06T05:56:11;96863.63;;;17.26;96.68
73085;BME280;62974;49.460;10.892;2023-08-06T05:58:38;96863.75;;;16.95;98.73
73085;BME280;62974;49.460;10.892;2023-08-06T06:01:06;96857.72;;;16.45;100.00
73085;BME280;62974;49.460;10.892;2023-08-06T06:03:33;96851.66;;;16.65;97.61
73085;BME280;62974;49.460;10.892;2023-08-06T06:06:01;96860.72;;;16.49;98.63
73085;BME280;62974;49.460;10.892;2023-08-06T06:08:29;96864.53;;;16.48;98.79
73085;BME280;62974;49.460;10.892;2023-08-06T06:10:56;96861.50;;;16.39;97.94
73085;BME280;62974;49.460;10.892;2023-08-06T06:13:25;96860.38;;;16.35;100.00
73085;BME280;62974;49.460;10.892;2023-08-06T06:15:54;96858.88;;;16.55;96.84
73085;BME280;62974;49.460;10.892;2023-08-06T06:18:21;96855.00;;;16.45;97.77
73085;BME280;62974;49.460;10.892;2023-08-06T06:20:49;96862.81;;;16.37;99.15
73085;BME280;62974;49.460;10.892;2023-08-06T06:23:16;96856.06;;;16.44;98.24
73085;BME280;62974;49.460;10.892;2023-08-06T06:25:48;96852.06;;;16.52;95.02
73085;BME280;62974;49.460;10.892;2023-08-06T06:28:15;96852.13;;;16.57;95.13
73085;BME280;62974;49.460;10.892;2023-08-06T06:30:44;96853.28;;;16.29;99.35
73085;BME280;62974;49.460;10.892;2023-08-06T06:33:12;96848.78;;;16.45;97.82
73085;BME280;62974;49.460;10.892;2023-08-06T06:35:39;96850.69;;;16.50;96.38
73085;BME280;62974;49.460;10.892;2023-08-06T06:38:07;96847.75;;;16.56;94.94
73085;BME280;62974;49.460;10.892;2023-08-06T06:40:34;96850.16;;;16.53;96.62
73085;BME280;62974;49.460;10.892;2023-08-06T06:43:02;96850.41;;;16.46;97.49
73085;BME280;62974;49.460;10.892;2023-08-06T06:45:29;96852.50;;;16.34;100.00
73085;BME280;62974;49.460;10.892;2023-08-06T06:47:58;96851.66;;;16.33;100.00
73085;BME280;62974;49.460;10.892;2023-08-06T06:50:26;96859.69;;;16.18;100.00
73085;BME280;62974;49.460;10.892;2023-08-06T06:52:54;96854.53;;;16.17;100.00
73085;BME280;62974;49.460;10.892;2023-08-06T06:55:21;96854.47;;;16.43;99.62
73085;BME280;62974;49.460;10.892;2023-08-06T06:57:49;96842.03;;;16.48;97.28
73085;BME280;62974;49.460;10.892;2023-08-06T07:00:16;96849.88;;;16.44;99.47
73085;BME280;62974;49.460;10.892;2023-08-06T07:02:44;96852.81;;;16.42;100.00
73085;BME280;62974;49.460;10.892;2023-08-06T07:05:13;96844.75;;;16.48;99.09
73085;BME280;62974;49.460;10.892;2023-08-06T07:07:40;96853.63;;;16.06;100.00
73085;BME280;62974;49.460;10.892;2023-08-06T07:10:08;96857.72;;;16.45;100.00
73085;BME280;62974;49.460;10.892;2023-08-06T07:12:36;96854.44;;;16.38;100.00
73085;BME280;62974;49.460;10.892;2023-08-06T07:15:05;96851.44;;;16.35;100.00
73085;BME280;62974;49.460;10.892;2023-08-06T07:17:33;96847.41;;;16.42;100.00
73085;BME280;62974;49.460;10.892;2023-08-06T07:20:01;96846.97;;;16.56;100.00
73085;BME280;62974;49.460;10.892;2023-08-06T07:22:30;96844.63;;;16.69;100.00
73085;BME280;62974;49.460;10.892;2023-08-06T07:24:57;96846.22;;;16.65;100.00
73085;BME280;62974;49.460;10.892;2023-08-06T07:27:25;96844.63;;;16.69;100.00
73085;BME280;62974;49.460;10.892;2023-08-06T07:29:52;96842.72;;;16.70;99.23
73085;BME280;62974;49.460;10.892;2023-08-06T07:32:20;96849.59;;;16.45;100.00
73085;BME280;62974;49.460;10.892;2023-08-06T07:34:48;96843.63;;;16.43;100.00
73085;BME280;62974;49.460;10.892;2023-08-06T07:37:16;96844.94;;;16.41;100.00
73085;BME280;62974;49.460;10.892;2023-08-06T07:39:45;96857.03;;;16.23;100.00
73085;BME280;62974;49.460;10.892;2023-08-06T07:42:12;96847.81;;;16.24;100.00
73085;BME280;62974;49.460;10.892;2023-08-06T07:44:40;96847.41;;;16.42;100.00
73085;BME280;62974;49.460;10.892;2023-08-06T07:47:08;96841.09;;;16.64;100.00
73085;BME280;62974;49.460;10.892;2023-08-06T07:49:35;96840.09;;;16.43;100.00
73085;BME280;62974;49.460;10.892;2023-08-06T07:52:03;96848.03;;;16.18;100.00
73085;BME280;62974;49.460;10.892;2023-08-06T07:54:31;96852.44;;;15.65;100.00
73085;BME280;62974;49.460;10.892;2023-08-06T07:56:59;96847.06;;;15.43;100.00
73085;BME280;62974;49.460;10.892;2023-08-06T07:59:27;96843.84;;;16.00;100.00
73085;BME280;62974;49.460;10.892;2023-08-06T08:01:54;96842.03;;;15.79;100.00
73085;BME280;62974;49.460;10.892;2023-08-06T08:04:23;96840.78;;;16.23;100.00
73085;BME280;62974;49.460;10.892;2023-08-06T08:06:50;96834.25;;;16.19;100.00
73085;BME280;62974;49.460;10.892;2023-08-06T08:09:18;96833.09;;;16.47;100.00
73085;BME280;62974;49.460;10.892;2023-08-06T08:11:45;96835.22;;;16.40;100.00
73085;BME280;62974;49.460;10.892;2023-08-06T08:14:14;96848.78;;;16.08;100.00
73085;BME280;62974;49.460;10.892;2023-08-06T08:16:42;96838.50;;;16.10;100.00
73085;BME280;62974;49.460;10.892;2023-08-06T08:19:10;96836.31;;;15.75;100.00
73085;BME280;62974;49.460;10.892;2023-08-06T08:21:37;96838.81;;;15.82;100.00
73085;BME280;62974;49.460;10.892;2023-08-06T08:24:05;96841.03;;;15.90;100.00
73085;BME280;62974;49.460;10.892;2023-08-06T08:26:33;96837.03;;;15.97;100.00
73085;BME280;62974;49.460;10.892;2023-08-06T08:29:00;96838.94;;;15.97;100.00
73085;BME280;62974;49.460;10.892;2023-08-06T08:31:29;96847.56;;;15.94;100.00
73085;BME280;62974;49.460;10.892;2023-08-06T08:33:57;96839.34;;;15.52;100.00
73085;BME280;62974;49.460;10.892;2023-08-06T08:36:25;96850.44;;;15.82;100.00
73085;BME280;62974;49.460;10.892;2023-08-06T08:38:53;96855.19;;;15.43;100.00
73085;BME280;62974;49.460;10.892;2023-08-06T08:41:21;96851.63;;;15.65;100.00
73085;BME280;62974;49.460;10.892;2023-08-06T08:43:50;96859.75;;;15.65;100.00
73085;BME280;62974;49.460;10.892;2023-08-06T08:46:19;96854.03;;;15.61;100.00
73085;BME280;62974;49.460;10.892;2023-08-06T08:48:48;96849.88;;;15.54;100.00
73085;BME280;62974;49.460;10.892;2023-08-06T08:51:15;96842.25;;;16.04;100.00
73085;BME280;62974;49.460;10.892;2023-08-06T08:53:44;96847.50;;;16.16;100.00
73085;BME280;62974;49.460;10.892;2023-08-06T08:56:12;96830.84;;;16.02;100.00
73085;BME280;62974;49.460;10.892;2023-08-06T08:58:40;96840.09;;;15.74;100.00
73085;BME280;62974;49.460;10.892;2023-08-06T09:01:08;96838.56;;;15.35;100.00
73085;BME280;62974;49.460;10.892;2023-08-06T09:03:36;96831.78;;;16.18;100.00
73085;BME280;62974;49.460;10.892;2023-08-06T09:06:06;96825.94;;;16.73;100.00
73085;BME280;62974;49.460;10.892;2023-08-06T09:08:36;96823.59;;;16.50;100.00
73085;BME280;62974;49.460;10.892;2023-08-06T09:11:08;96822.06;;;16.59;100.00
73085;BME280;62974;49.460;10.892;2023-08-06T09:13:37;96822.00;;;16.54;100.00
73085;BME280;62974;49.460;10.892;2023-08-06T09:16:04;96825.94;;;16.73;100.00
73085;BME280;62974;49.460;10.892;2023-08-06T09:18:32;96825.19;;;16.45;100.00
73085;BME280;62974;49.460;10.892;2023-08-06T09:20:59;96826.31;;;16.13;100.00
73085;BME280;62974;49.460;10.892;2023-08-06T09:23:29;96820.66;;;16.14;100.00
73085;BME280;62974;49.460;10.892;2023-08-06T09:25:57;96835.06;;;16.25;100.00
73085;BME280;62974;49.460;10.892;2023-08-06T09:28:36;96830.03;;;16.02;100.00
73085;BME280;62974;49.460;10.892;2023-08-06T09:31:04;96826.13;;;16.24;100.00
73085;BME280;62974;49.460;10.892;2023-08-06T09:33:32;96817.59;;;16.06;100.00
73085;BME280;62974;49.460;10.892;2023-08-06T09:36:07;96818.56;;;16.26;100.00
73085;BME280;62974;49.460;10.892;2023-08-06T09:38:38;96823.41;;;16.24;100.00
73085;BME280;62974;49.460;10.892;2023-08-06T09:41:07;96818.75;;;16.15;100.00
73085;BME280;62974;49.460;10.892;2023-08-06T09:43:41;96821.38;;;16.05;100.00
73085;BME280;62974;49.460;10.892;2023-08-06T09:46:13;96816.53;;;15.75;100.00
73085;BME280;62974;49.460;10.892;2023-08-06T09:48:45;96810.78;;;15.98;100.00
73085;BME280;62974;49.460;10.892;2023-08-06T09:51:13;96808.13;;;16.03;100.00
73085;BME280;62974;49.460;10.892;2023-08-06T09:53:43;96810.06;;;16.08;100.00
73085;BME280;62974;49.460;10.892;2023-08-06T09:56:12;96800.78;;;16.40;100.00
73085;BME280;62974;49.460;10.892;2023-08-06T09:58:41;96792.13;;;16.43;100.00
73085;BME280;62974;49.460;10.892;2023-08-06T10:01:11;96786.06;;;16.73;100.00
73085;BME280;62974;49.460;10.892;2023-08-06T10:03:40;96791.91;;;17.02;100.00
73085;BME280;62974;49.460;10.892;2023-08-06T10:06:08;96787.00;;;17.04;99.47
73085;BME280;62974;49.460;10.892;2023-08-06T10:08:36;96795.91;;;16.42;95.33
73085;BME280;62974;49.460;10.892;2023-08-06T10:11:05;96788.59;;;16.43;95.89
73085;BME280;62974;49.460;10.892;2023-08-06T10:13:34;96787.00;;;16.99;95.48
73085;BME280;62974;49.460;10.892;2023-08-06T10:16:03;96786.69;;;16.90;95.59
73085;BME280;62974;49.460;10.892;2023-08-06T10:18:33;96789.91;;;16.82;96.99
73085;BME280;62974;49.460;10.892;2023-08-06T10:21:03;96796.31;;;16.61;97.13
73085;BME280;62974;49.460;10.892;2023-08-06T10:23:33;96786.03;;;16.63;96.15
73085;BME280;62974;49.460;10.892;2023-08-06T10:26:05;96787.56;;;17.06;95.95
73085;BME280;62974;49.460;10.892;2023-08-06T10:28:34;96773.53;;;17.45;94.26
73085;BME280;62974;49.460;10.892;2023-08-06T10:31:03;96774.69;;;17.84;91.43
73085;BME280;62974;49.460;10.892;2023-08-06T10:33:41;96771.97;;;17.89;90.27
73085;BME280;62974;49.460;10.892;2023-08-06T10:36:09;96781.13;;;17.32;93.93
73085;BME280;62974;49.460;10.892;2023-08-06T10:38:44;96772.34;;;16.95;94.56
73085;BME280;62974;49.460;10.892;2023-08-06T10:41:26;96779.81;;;16.63;90.84
73085;BME280;62974;49.460;10.892;2023-08-06T10:44:05;96763.94;;;16.92;88.46
73085;BME280;62974;49.460;10.892;2023-08-06T10:46:33;96763.66;;;16.93;90.02
73085;BME280;62974;49.460;10.892;2023-08-06T10:49:01;96769.72;;;17.30;88.68
73085;BME280;62974;49.460;10.892;2023-08-06T10:51:29;96759.16;;;17.49;87.91
73085;BME280;62974;49.460;10.892;2023-08-06T10:53:56;96769.53;;;17.62;89.45
73085;BME280;62974;49.460;10.892;2023-08-06T10:56:26;96761.59;;;17.41;89.28
73085;BME280;62974;49.460;10.892;2023-08-06T10:58:55;96768.19;;;17.70;86.03
73085;BME280;62974;49.460;10.892;2023-08-06T11:01:23;96764.06;;;17.47;86.54
73085;BME280;62974;49.460;10.892;2023-08-06T11:03:51;96768.38;;;17.38;87.19
73085;BME280;62974;49.460;10.892;2023-08-06T11:06:21;96769.19;;;17.33;89.48
73085;BME280;62974;49.460;10.892;2023-08-06T11:08:50;96771.53;;;17.05;90.43
73085;BME280;62974;49.460;10.892;2023-08-06T11:11:18;96770.50;;;17.16;91.61
73085;BME280;62974;49.460;10.892;2023-08-06T11:13:48;96766.63;;;16.92;90.93
73085;BME280;62974;49.460;10.892;2023-08-06T11:16:18;96764.50;;;17.04;91.35
73085;BME280;62974;49.460;10.892;2023-08-06T11:18:46;96757.31;;;17.85;87.58
73085;BME280;62974;49.460;10.892;2023-08-06T11:21:14;96754.88;;;17.78;86.14
73085;BME280;62974;49.460;10.892;2023-08-06T11:23:48;96766.53;;;17.89;87.42
73085;BME280;62974;49.460;10.892;2023-08-06T11:26:18;96766.00;;;17.72;91.23
73085;BME280;62974;49.460;10.892;2023-08-06T11:28:48;96761.06;;;18.24;90.53
73085;BME280;62974;49.460;10.892;2023-08-06T11:31:19;96762.16;;;18.23;89.09
73085;BME280;62974;49.460;10.892;2023-08-06T11:33:49;96747.25;;;18.06;89.42
73085;BME280;62974;49.460;10.892;2023-08-06T11:36:28;96747.72;;;18.33;85.40
73085;BME280;62974;49.460;10.892;2023-08-06T11:38:56;96749.59;;;18.58;85.48
73085;BME280;62974;49.460;10.892;2023-08-06T11:41:23;96744.13;;;18.68;84.04
73085;BME280;62974;49.460;10.892;2023-08-06T11:43:52;96739.88;;;18.21;84.07
73085;BME280;62974;49.460;10.892;2023-08-06T11:46:20;96727.03;;;18.57;83.51
73085;BME280;62974;49.460;10.892;2023-08-06T11:48:52;96733.06;;;18.34;82.90
73085;BME280;62974;49.460;10.892;2023-08-06T11:51:22;96729.31;;;18.00;83.71
73085;BME280;62974;49.460;10.892;2023-08-06T11:53:50;96758.94;;;17.61;88.73
73085;BME280;62974;49.460;10.892;2023-08-06T11:56:17;96771.38;;;16.64;100.00
73085;BME280;62974;49.460;10.892;2023-08-06T11:58:45;96767.84;;;16.59;100.00
73085;BME280;62974;49.460;10.892;2023-08-06T12:01:14;96774.25;;;17.05;100.00
73085;BME280;62974;49.460;10.892;2023-08-06T12:03:42;96766.91;;;16.90;100.00
73085;BME280;62974;49.460;10.892;2023-08-06T12:06:10;96768.94;;;16.63;100.00
73085;BME280;62974;49.460;10.892;2023-08-06T12:08:37;96768.25;;;16.87;100.00
73085;BME280;62974;49.460;10.892;2023-08-06T12:11:05;96767.16;;;16.83;100.00
73085;BME280;62974;49.460;10.892;2023-08-06T12:13:32;96753.44;;;17.25;100.00
73085;BME280;62974;49.460;10.892;2023-08-06T12:16:00;96759.88;;;16.99;100.00
73085;BME280;62974;49.460;10.892;2023-08-06T12:18:29;96745.00;;;17.17;100.00
73085;BME280;62974;49.460;10.892;2023-08-06T12:20:56;96740.47;;;17.78;100.00
73085;BME280;62974;49.460;10.892;2023-08-06T12:23:24;96747.53;;;17.99;97.46
73085;BME280;62974;49.460;10.892;2023-08-06T12:25:52;96744.78;;;17.49;93.10
73085;BME280;62974;49.460;10.892;2023-08-06T12:28:19;96737.50;;;17.69;96.48
73085;BME280;62974;49.460;10.892;2023-08-06T12:30:49;96736.06;;;17.36;92.72
73085;BME280;62974;49.460;10.892;2023-08-06T12:33:21;96750.22;;;17.44;93.73
73085;BME280;62974;49.460;10.892;2023-08-06T12:35:49;96755.41;;;17.60;93.59
73085;BME280;62974;49.460;10.892;2023-08-06T12:38:19;96746.97;;;18.02;89.73
73085;BME280;62974;49.460;10.892;2023-08-06T12:40:47;96739.88;;;18.16;86.51
73085;BME280;62974;49.460;10.892;2023-08-06T12:43:14;96734.75;;;18.05;87.89
73085;BME280;62974;49.460;10.892;2023-08-06T12:45:42;96736.34;;;18.16;87.82
73085;BME280;62974;49.460;10.892;2023-08-06T12:48:09;96741.81;;;17.86;88.76
73085;BME280;62974;49.460;10.892;2023-08-06T12:50:37;96744.28;;;17.77;87.80